createdAt,value
2018-10-06T00:00:48.778Z,10.44
2018-10-06T00:01:49.036Z,10.37
2018-10-06T00:02:49.018Z,10.37
2018-10-06T00:03:49.007Z,10.48
2018-10-06T00:04:48.732Z,10.46
2018-10-06T00:05:48.848Z,10.42
2018-10-06T00:06:49.250Z,10.38
2018-10-06T00:07:48.713Z,10.37
2018-10-06T00:08:48.686Z,10.33
2018-10-06T00:09:48.760Z,10.31
2018-10-06T00:10:48.935Z,10.25
2018-10-06T00:11:48.657Z,10.31
2018-10-06T00:12:48.659Z,10.25
2018-10-06T00:13:48.634Z,10.25
2018-10-06T00:14:48.892Z,10.22
2018-10-06T00:15:48.613Z,10.23
2018-10-06T00:16:48.673Z,10.30
2018-10-06T00:17:48.866Z,10.28
2018-10-06T00:18:48.578Z,10.28
2018-10-06T00:19:48.836Z,10.30
2018-10-06T00:20:48.560Z,10.25
2018-10-06T00:21:49.084Z,10.22
2018-10-06T00:22:48.540Z,10.25
2018-10-06T00:23:48.619Z,10.25
2018-10-06T00:24:48.780Z,10.23
2018-10-06T00:25:48.766Z,10.30
2018-10-06T00:26:48.501Z,10.28
2018-10-06T00:27:48.489Z,10.33
2018-10-06T00:28:48.481Z,10.34
2018-10-06T00:29:48.465Z,10.35
2018-10-06T00:30:48.470Z,10.35
2018-10-06T00:31:48.453Z,10.40
2018-10-06T00:32:48.429Z,10.33
2018-10-06T00:33:48.429Z,10.37
2018-10-06T00:34:48.419Z,10.35
2018-10-06T00:35:48.399Z,10.33
2018-10-06T00:36:48.658Z,10.37
2018-10-06T00:37:48.384Z,10.37
2018-10-06T00:38:48.478Z,10.44
2018-10-06T00:39:48.620Z,10.44
2018-10-06T00:40:48.345Z,10.42
2018-10-06T00:41:48.331Z,10.44
2018-10-06T00:42:48.326Z,10.46
2018-10-06T00:43:48.328Z,10.41
2018-10-06T00:44:48.559Z,10.48
2018-10-06T00:45:48.289Z,10.48
2018-10-06T00:46:48.288Z,10.48
2018-10-06T00:47:48.285Z,10.49
2018-10-06T00:48:48.255Z,10.49
2018-10-06T00:49:48.511Z,10.51
2018-10-06T00:50:48.508Z,10.51
2018-10-06T00:51:48.246Z,10.48
2018-10-06T00:52:48.220Z,10.42
2018-10-06T00:53:48.204Z,10.54
2018-10-06T00:54:48.199Z,10.41
2018-10-06T00:55:48.478Z,10.41
2018-10-06T00:56:48.180Z,10.40
2018-10-06T00:57:48.165Z,10.35
2018-10-06T00:58:48.198Z,10.30
2018-10-06T00:59:48.263Z,10.34
2018-10-06T01:00:48.145Z,10.23
2018-10-06T01:01:48.381Z,10.25
2018-10-06T01:02:48.376Z,10.28
2018-10-06T01:03:48.169Z,10.31
2018-10-06T01:04:48.085Z,10.33
2018-10-06T01:05:48.085Z,10.40
2018-10-06T01:06:48.199Z,10.34
2018-10-06T01:07:48.050Z,10.35
2018-10-06T01:08:49.707Z,10.37
2018-10-06T01:09:48.045Z,10.34
2018-10-06T01:10:48.019Z,10.26
2018-10-06T01:11:48.268Z,10.26
2018-10-06T01:12:47.999Z,10.20
2018-10-06T01:13:48.252Z,10.23
2018-10-06T01:14:47.993Z,10.20
2018-10-06T01:15:47.992Z,10.20
2018-10-06T01:16:47.963Z,10.15
2018-10-06T01:17:48.003Z,10.17
2018-10-06T01:18:47.934Z,10.07
2018-10-06T01:19:47.923Z,10.12
2018-10-06T01:20:47.917Z,10.01
2018-10-06T01:21:47.915Z,10.04
2018-10-06T01:22:47.911Z,10.04
2018-10-06T01:23:47.886Z,10.01
2018-10-06T01:24:48.033Z,10.02
2018-10-06T01:25:47.877Z,9.95
2018-10-06T01:26:47.886Z,9.87
2018-10-06T01:27:48.101Z,9.94
2018-10-06T01:28:48.107Z,9.91
2018-10-06T01:29:47.816Z,9.99
2018-10-06T01:30:48.170Z,9.99
2018-10-06T01:31:47.796Z,10.04
2018-10-06T01:32:47.779Z,10.01
2018-10-06T01:33:47.777Z,10.05
2018-10-06T01:34:47.772Z,9.99
2018-10-06T01:35:48.022Z,10.02
2018-10-06T01:36:47.734Z,9.99
2018-10-06T01:37:47.983Z,10.01
2018-10-06T01:38:47.723Z,10.01
2018-10-06T01:39:48.868Z,10.10
2018-10-06T01:40:47.701Z,10.13
2018-10-06T01:41:47.961Z,10.02
2018-10-06T01:42:47.673Z,10.04
2018-10-06T01:43:47.931Z,10.07
2018-10-06T01:44:47.649Z,10.04
2018-10-06T01:45:47.645Z,10.01
2018-10-06T01:46:47.638Z,10.05
2018-10-06T01:47:47.649Z,10.05
2018-10-06T01:48:47.631Z,10.05
2018-10-06T01:49:47.668Z,9.99
2018-10-06T01:50:47.607Z,9.99
2018-10-06T01:51:47.574Z,9.98
2018-10-06T01:52:47.563Z,10.02
2018-10-06T01:53:47.825Z,10.15
2018-10-06T01:54:47.548Z,10.15
2018-10-06T01:55:47.789Z,10.15
2018-10-06T01:56:47.785Z,10.13
2018-10-06T01:57:47.510Z,10.20
2018-10-06T01:58:47.500Z,10.17
2018-10-06T01:59:47.485Z,10.13
2018-10-06T02:00:47.483Z,10.16
2018-10-06T02:01:47.478Z,10.10
2018-10-06T02:02:47.986Z,10.10
2018-10-06T02:03:47.444Z,10.15
2018-10-06T02:04:47.703Z,10.16
2018-10-06T02:05:47.439Z,10.15
2018-10-06T02:06:47.415Z,10.20
2018-10-06T02:07:47.406Z,10.23
2018-10-06T02:08:47.655Z,10.15
2018-10-06T02:09:47.377Z,10.15
2018-10-06T02:10:47.635Z,10.16
2018-10-06T02:11:47.626Z,10.17
2018-10-06T02:12:47.612Z,10.25
2018-10-06T02:13:47.352Z,10.19
2018-10-06T02:14:47.337Z,10.20
2018-10-06T02:15:47.316Z,10.20
2018-10-06T02:16:47.305Z,10.22
2018-10-06T02:17:47.309Z,10.26
2018-10-06T02:18:47.559Z,10.30
2018-10-06T02:19:47.274Z,10.26
2018-10-06T02:20:47.264Z,10.28
2018-10-06T02:21:47.263Z,10.30
2018-10-06T02:22:47.253Z,10.23
2018-10-06T02:23:47.503Z,10.23
2018-10-06T02:24:47.477Z,10.23
2018-10-06T02:25:47.294Z,10.31
2018-10-06T02:26:47.196Z,10.31
2018-10-06T02:27:47.312Z,10.37
2018-10-06T02:28:47.516Z,10.37
2018-10-06T02:29:47.168Z,10.44
2018-10-06T02:30:47.430Z,10.42
2018-10-06T02:31:47.249Z,10.56
2018-10-06T02:32:47.131Z,10.42
2018-10-06T02:33:47.132Z,10.49
2018-10-06T02:34:47.128Z,10.48
2018-10-06T02:35:47.099Z,10.51
2018-10-06T02:36:47.173Z,10.51
2018-10-06T02:37:47.087Z,10.53
2018-10-06T02:38:47.338Z,10.54
2018-10-06T02:39:47.055Z,10.51
2018-10-06T02:40:47.057Z,10.48
2018-10-06T02:41:47.046Z,10.48
2018-10-06T02:42:47.043Z,10.41
2018-10-06T02:43:47.281Z,10.51
2018-10-06T02:44:47.271Z,10.51
2018-10-06T02:45:46.991Z,10.53
2018-10-06T02:46:47.348Z,10.51
2018-10-06T02:47:46.970Z,10.54
2018-10-06T02:48:47.233Z,10.53
2018-10-06T02:49:47.220Z,10.53
2018-10-06T02:50:46.950Z,10.60
2018-10-06T02:51:46.935Z,10.49
2018-10-06T02:52:46.925Z,10.51
2018-10-06T02:53:46.912Z,10.53
2018-10-06T02:54:47.160Z,10.53
2018-10-06T02:55:46.884Z,10.54
2018-10-06T02:56:47.153Z,10.42
2018-10-06T02:57:46.887Z,10.51
2018-10-06T02:58:46.850Z,10.56
2018-10-06T02:59:47.103Z,10.48
2018-10-06T03:00:46.831Z,10.51
2018-10-06T03:01:46.818Z,10.53
2018-10-06T03:02:46.807Z,10.46
2018-10-06T03:03:47.080Z,10.54
2018-10-06T03:04:46.786Z,10.51
2018-10-06T03:05:46.898Z,10.49
2018-10-06T03:06:46.776Z,10.53
2018-10-06T03:07:46.775Z,10.49
2018-10-06T03:08:46.751Z,10.44
2018-10-06T03:09:46.736Z,10.44
2018-10-06T03:10:46.721Z,10.46
2018-10-06T03:11:46.710Z,10.38
2018-10-06T03:12:46.713Z,10.44
2018-10-06T03:13:46.687Z,10.41
2018-10-06T03:14:46.696Z,10.44
2018-10-06T03:15:46.680Z,10.49
2018-10-06T03:16:46.658Z,10.37
2018-10-06T03:17:46.644Z,10.46
2018-10-06T03:18:46.661Z,10.42
2018-10-06T03:19:46.624Z,10.49
2018-10-06T03:20:46.619Z,10.46
2018-10-06T03:21:46.629Z,10.53
2018-10-06T03:22:46.588Z,10.41
2018-10-06T03:23:47.743Z,10.48
2018-10-06T03:24:46.591Z,10.53
2018-10-06T03:25:46.574Z,10.53
2018-10-06T03:26:46.544Z,10.51
2018-10-06T03:27:46.538Z,10.41
2018-10-06T03:28:46.538Z,10.40
2018-10-06T03:29:46.797Z,10.33
2018-10-06T03:30:46.508Z,10.33
2018-10-06T03:31:46.495Z,10.34
2018-10-06T03:32:46.745Z,10.33
2018-10-06T03:33:46.469Z,10.34
2018-10-06T03:34:46.461Z,10.38
2018-10-06T03:35:46.453Z,10.30
2018-10-06T03:36:46.444Z,10.38
2018-10-06T03:37:46.425Z,10.34
2018-10-06T03:38:46.679Z,10.51
2018-10-06T03:39:46.406Z,10.41
2018-10-06T03:40:46.392Z,10.42
2018-10-06T03:41:46.383Z,10.38
2018-10-06T03:42:46.439Z,10.31
2018-10-06T03:43:46.365Z,10.34
2018-10-06T03:44:46.357Z,10.19
2018-10-06T03:45:46.362Z,10.25
2018-10-06T03:46:46.592Z,10.20
2018-10-06T03:47:46.559Z,10.19
2018-10-06T03:48:46.315Z,10.19
2018-10-06T03:49:46.323Z,10.16
2018-10-06T03:50:46.288Z,10.12
2018-10-06T03:51:46.296Z,10.09
2018-10-06T03:52:46.277Z,10.07
2018-10-06T03:53:46.523Z,10.10
2018-10-06T03:54:46.255Z,10.12
2018-10-06T03:55:46.251Z,10.09
2018-10-06T03:56:46.224Z,10.02
2018-10-06T03:57:46.226Z,10.04
2018-10-06T03:58:46.199Z,9.92
2018-10-06T03:59:46.203Z,10.02
2018-10-06T04:00:46.189Z,9.99
2018-10-06T04:01:46.492Z,9.89
2018-10-06T04:02:46.160Z,9.92
2018-10-06T04:03:46.166Z,9.95
2018-10-06T04:04:46.168Z,9.89
2018-10-06T04:05:46.129Z,9.89
2018-10-06T04:06:46.119Z,9.91
2018-10-06T04:07:46.110Z,9.92
2018-10-06T04:08:46.370Z,9.91
2018-10-06T04:09:46.343Z,10.02
2018-10-06T04:10:46.071Z,9.94
2018-10-06T04:11:46.079Z,9.89
2018-10-06T04:12:47.273Z,9.99
2018-10-06T04:13:46.050Z,10.02
2018-10-06T04:14:46.317Z,10.07
2018-10-06T04:15:46.285Z,9.98
2018-10-06T04:16:46.005Z,10.01
2018-10-06T04:17:45.993Z,10.12
2018-10-06T04:18:46.024Z,10.13
2018-10-06T04:19:45.978Z,10.05
2018-10-06T04:20:45.969Z,10.12
2018-10-06T04:21:45.957Z,10.12
2018-10-06T04:22:45.949Z,10.16
2018-10-06T04:23:45.948Z,10.16
2018-10-06T04:24:46.187Z,10.13
2018-10-06T04:25:45.910Z,10.12
2018-10-06T04:26:46.166Z,10.12
2018-10-06T04:27:45.895Z,10.13
2018-10-06T04:28:45.877Z,10.10
2018-10-06T04:29:45.866Z,10.12
2018-10-06T04:30:45.856Z,10.17
2018-10-06T04:31:46.124Z,10.10
2018-10-06T04:32:45.844Z,10.15
2018-10-06T04:33:45.824Z,10.22
2018-10-06T04:34:46.068Z,10.20
2018-10-06T04:35:45.814Z,10.17
2018-10-06T04:36:45.801Z,10.20
2018-10-06T04:37:45.780Z,10.17
2018-10-06T04:38:45.767Z,10.19
2018-10-06T04:39:45.761Z,10.28
2018-10-06T04:40:45.750Z,10.23
2018-10-06T04:41:45.755Z,10.15
2018-10-06T04:42:46.000Z,10.12
2018-10-06T04:43:45.974Z,10.13
2018-10-06T04:44:45.704Z,10.01
2018-10-06T04:45:45.701Z,10.09
2018-10-06T04:46:45.681Z,9.89
2018-10-06T04:47:45.676Z,9.95
2018-10-06T04:48:45.664Z,9.87
2018-10-06T04:49:46.176Z,9.94
2018-10-06T04:50:46.019Z,9.91
2018-10-06T04:51:45.629Z,9.92
2018-10-06T04:52:45.621Z,9.94
2018-10-06T04:53:45.603Z,9.91
2018-10-06T04:54:45.594Z,9.89
2018-10-06T04:55:45.603Z,9.82
2018-10-06T04:56:45.579Z,9.89
2018-10-06T04:57:45.579Z,9.82
2018-10-06T04:58:45.556Z,9.80
2018-10-06T04:59:45.554Z,9.82
2018-10-06T05:00:45.533Z,9.83
2018-10-06T05:01:45.802Z,9.83
2018-10-06T05:02:45.519Z,9.89
2018-10-06T05:03:45.549Z,9.79
2018-10-06T05:04:45.491Z,9.82
2018-10-06T05:05:46.016Z,9.82
2018-10-06T05:06:45.463Z,9.92
2018-10-06T05:07:45.456Z,9.95
2018-10-06T05:08:45.471Z,9.92
2018-10-06T05:09:45.453Z,9.91
2018-10-06T05:10:45.430Z,9.89
2018-10-06T05:11:45.422Z,9.91
2018-10-06T05:12:45.400Z,9.95
2018-10-06T05:13:45.403Z,9.91
2018-10-06T05:14:45.395Z,9.91
2018-10-06T05:15:45.369Z,9.89
2018-10-06T05:16:45.372Z,9.89
2018-10-06T05:17:45.350Z,9.91
2018-10-06T05:18:45.337Z,9.89
2018-10-06T05:19:45.848Z,9.91
2018-10-06T05:20:45.315Z,9.82
2018-10-06T05:21:45.317Z,9.86
2018-10-06T05:22:45.304Z,9.87
2018-10-06T05:23:45.712Z,9.80
2018-10-06T05:24:45.268Z,9.83
2018-10-06T05:25:45.285Z,9.77
2018-10-06T05:26:45.543Z,9.77
2018-10-06T05:27:45.241Z,9.84
2018-10-06T05:28:45.488Z,9.89
2018-10-06T05:29:45.482Z,9.76
2018-10-06T05:30:45.212Z,9.87
2018-10-06T05:31:45.215Z,9.84
2018-10-06T05:32:45.203Z,9.84
2018-10-06T05:33:45.175Z,9.83
2018-10-06T05:34:45.166Z,10.01
2018-10-06T05:35:45.152Z,9.91
2018-10-06T05:36:45.147Z,10.02
2018-10-06T05:37:45.133Z,9.99
2018-10-06T05:38:45.382Z,9.89
2018-10-06T05:39:45.118Z,9.94
2018-10-06T05:40:45.102Z,9.95
2018-10-06T05:41:45.089Z,9.95
2018-10-06T05:42:45.077Z,10.07
2018-10-06T05:43:45.060Z,10.05
2018-10-06T05:44:45.064Z,10.01
2018-10-06T05:45:45.057Z,9.99
2018-10-06T05:46:45.047Z,10.01
2018-10-06T05:47:45.056Z,10.01
2018-10-06T05:48:45.022Z,9.98
2018-10-06T05:49:45.015Z,9.92
2018-10-06T05:50:45.294Z,9.95
2018-10-06T05:51:45.001Z,9.91
2018-10-06T05:52:45.064Z,9.91
2018-10-06T05:53:45.224Z,9.91
2018-10-06T05:54:44.944Z,9.95
2018-10-06T05:55:44.946Z,9.97
2018-10-06T05:56:45.189Z,10.02
2018-10-06T05:57:44.906Z,10.01
2018-10-06T05:58:45.169Z,10.07
2018-10-06T05:59:44.896Z,10.02
2018-10-06T06:00:44.875Z,10.01
2018-10-06T06:01:45.124Z,10.09
2018-10-06T06:02:44.861Z,10.15
2018-10-06T06:03:45.383Z,10.13
2018-10-06T06:04:44.946Z,10.17
2018-10-06T06:05:44.829Z,10.26
2018-10-06T06:06:44.818Z,10.30
2018-10-06T06:07:44.806Z,10.23
2018-10-06T06:08:45.066Z,10.25
2018-10-06T06:09:44.821Z,10.37
2018-10-06T06:10:44.767Z,10.30
2018-10-06T06:11:44.758Z,10.35
2018-10-06T06:12:44.760Z,10.19
2018-10-06T06:13:44.744Z,10.28
2018-10-06T06:14:44.743Z,10.30
2018-10-06T06:15:44.819Z,10.35
2018-10-06T06:16:44.719Z,10.33
2018-10-06T06:17:44.958Z,10.26
2018-10-06T06:18:44.693Z,10.37
2018-10-06T06:19:44.681Z,10.31
2018-10-06T06:20:44.665Z,10.38
2018-10-06T06:21:44.921Z,10.41
2018-10-06T06:22:44.654Z,10.53
2018-10-06T06:23:44.652Z,10.42
2018-10-06T06:24:44.649Z,10.48
2018-10-06T06:25:44.935Z,10.51
2018-10-06T06:26:44.600Z,10.51
2018-10-06T06:27:44.600Z,10.49
2018-10-06T06:28:44.580Z,10.54
2018-10-06T06:29:44.824Z,10.57
2018-10-06T06:30:44.836Z,10.57
2018-10-06T06:31:44.552Z,10.53
2018-10-06T06:32:44.792Z,10.63
2018-10-06T06:33:44.531Z,10.61
2018-10-06T06:34:44.512Z,10.74
2018-10-06T06:35:44.531Z,10.68
2018-10-06T06:36:44.492Z,10.75
2018-10-06T06:37:44.738Z,10.76
2018-10-06T06:38:44.523Z,10.75
2018-10-06T06:39:44.467Z,10.84
2018-10-06T06:40:44.449Z,10.78
2018-10-06T06:41:44.442Z,10.87
2018-10-06T06:42:44.428Z,10.92
2018-10-06T06:43:44.510Z,10.89
2018-10-06T06:44:44.411Z,10.93
2018-10-06T06:45:44.396Z,10.93
2018-10-06T06:46:44.446Z,10.97
2018-10-06T06:47:44.370Z,11.02
2018-10-06T06:48:44.368Z,11.07
2018-10-06T06:49:45.381Z,11.15
2018-10-06T06:50:44.596Z,11.10
2018-10-06T06:51:44.595Z,11.10
2018-10-06T06:52:44.322Z,11.17
2018-10-06T06:53:44.301Z,11.14
2018-10-06T06:54:44.299Z,11.19
2018-10-06T06:55:44.309Z,11.22
2018-10-06T06:56:44.620Z,11.18
2018-10-06T06:57:44.807Z,11.19
2018-10-06T06:58:44.272Z,11.14
2018-10-06T06:59:44.506Z,11.22
2018-10-06T07:00:44.253Z,11.15
2018-10-06T07:01:44.217Z,11.19
2018-10-06T07:02:44.204Z,11.23
2018-10-06T07:03:44.544Z,11.32
2018-10-06T07:04:44.311Z,11.30
2018-10-06T07:05:44.244Z,11.19
2018-10-06T07:06:44.170Z,11.37
2018-10-06T07:07:44.149Z,11.43
2018-10-06T07:08:44.136Z,11.40
2018-10-06T07:09:44.128Z,11.52
2018-10-06T07:10:44.380Z,11.55
2018-10-06T07:11:44.372Z,11.59
2018-10-06T07:12:44.232Z,11.63
2018-10-06T07:13:44.350Z,11.59
2018-10-06T07:14:44.071Z,11.72
2018-10-06T07:15:44.058Z,11.66
2018-10-06T07:16:44.059Z,11.66
2018-10-06T07:17:44.048Z,11.78
2018-10-06T07:18:44.362Z,11.78
2018-10-06T07:19:44.032Z,11.80
2018-10-06T07:20:44.006Z,11.83
2018-10-06T07:21:43.993Z,11.90
2018-10-06T07:22:44.112Z,11.87
2018-10-06T07:23:43.972Z,11.88
2018-10-06T07:24:43.969Z,11.94
2018-10-06T07:25:44.210Z,11.97
2018-10-06T07:26:43.942Z,12.03
2018-10-06T07:27:46.758Z,12.03
2018-10-06T07:28:43.941Z,12.10
2018-10-06T07:29:43.936Z,12.12
2018-10-06T07:30:43.896Z,12.12
2018-10-06T07:31:44.041Z,12.15
2018-10-06T07:32:43.869Z,12.24
2018-10-06T07:33:43.860Z,12.15
2018-10-06T07:34:43.845Z,12.27
2018-10-06T07:35:44.130Z,12.27
2018-10-06T07:36:44.334Z,12.31
2018-10-06T07:37:43.834Z,12.32
2018-10-06T07:38:44.065Z,12.37
2018-10-06T07:39:43.790Z,12.39
2018-10-06T07:40:43.834Z,12.49
2018-10-06T07:41:44.042Z,12.55
2018-10-06T07:42:43.762Z,12.46
2018-10-06T07:43:43.759Z,12.60
2018-10-06T07:44:44.086Z,12.64
2018-10-06T07:45:43.847Z,12.67
2018-10-06T07:46:43.717Z,12.68
2018-10-06T07:47:44.881Z,12.76
2018-10-06T07:48:43.697Z,12.76
2018-10-06T07:49:43.701Z,12.79
2018-10-06T07:50:43.674Z,12.90
2018-10-06T07:51:43.956Z,12.97
2018-10-06T07:52:43.656Z,12.93
2018-10-06T07:53:43.651Z,13.01
2018-10-06T07:54:43.634Z,13.03
2018-10-06T07:55:45.142Z,13.03
2018-10-06T07:56:43.663Z,13.09
2018-10-06T07:57:43.611Z,13.05
2018-10-06T07:58:43.712Z,13.23
2018-10-06T07:59:43.578Z,13.18
2018-10-06T08:00:43.616Z,13.19
2018-10-06T08:01:43.571Z,13.19
2018-10-06T08:02:43.553Z,13.28
2018-10-06T08:03:43.546Z,13.25
2018-10-06T08:04:43.523Z,13.28
2018-10-06T08:05:43.527Z,13.39
2018-10-06T08:06:43.503Z,13.47
2018-10-06T08:07:43.521Z,13.54
2018-10-06T08:08:43.504Z,13.49
2018-10-06T08:09:43.472Z,13.54
2018-10-06T08:10:43.456Z,13.59
2018-10-06T08:11:43.448Z,13.72
2018-10-06T08:12:43.436Z,13.72
2018-10-06T08:13:43.755Z,13.71
2018-10-06T08:14:43.685Z,13.74
2018-10-06T08:15:43.662Z,13.78
2018-10-06T08:16:43.676Z,13.83
2018-10-06T08:17:43.397Z,13.92
2018-10-06T08:18:43.367Z,13.95
2018-10-06T08:19:43.625Z,13.95
2018-10-06T08:20:43.349Z,13.96
2018-10-06T08:21:43.350Z,14.05
2018-10-06T08:22:43.346Z,14.03
2018-10-06T08:23:43.582Z,14.17
2018-10-06T08:24:43.305Z,14.22
2018-10-06T08:25:43.298Z,14.28
2018-10-06T08:26:43.294Z,14.36
2018-10-06T08:27:44.297Z,14.47
2018-10-06T08:28:43.255Z,14.54
2018-10-06T08:29:43.279Z,14.60
2018-10-06T08:30:43.232Z,14.70
2018-10-06T08:31:43.230Z,14.79
2018-10-06T08:32:43.212Z,14.85
2018-10-06T08:33:43.467Z,14.89
2018-10-06T08:34:43.313Z,14.97
2018-10-06T08:35:43.453Z,14.97
2018-10-06T08:36:43.169Z,15.09
2018-10-06T08:37:43.182Z,15.10
2018-10-06T08:38:43.151Z,15.21
2018-10-06T08:39:43.171Z,15.22
2018-10-06T08:40:43.139Z,15.25
2018-10-06T08:41:43.121Z,15.37
2018-10-06T08:42:43.172Z,15.36
2018-10-06T08:43:43.198Z,15.42
2018-10-06T08:44:43.341Z,15.52
2018-10-06T08:45:43.071Z,15.47
2018-10-06T08:46:43.077Z,15.64
2018-10-06T08:47:43.311Z,15.61
2018-10-06T08:48:43.036Z,15.70
2018-10-06T08:49:43.049Z,15.73
2018-10-06T08:50:43.022Z,15.75
2018-10-06T08:51:43.010Z,15.82
2018-10-06T08:52:43.320Z,15.91
2018-10-06T08:53:43.050Z,15.91
2018-10-06T08:54:42.972Z,16.04
2018-10-06T08:55:42.964Z,16.09
2018-10-06T08:56:43.068Z,16.12
2018-10-06T08:57:42.944Z,16.04
2018-10-06T08:58:42.944Z,16.05
2018-10-06T08:59:43.181Z,16.16
2018-10-06T09:00:42.909Z,16.26
2018-10-06T09:01:42.954Z,16.33
2018-10-06T09:02:42.956Z,16.39
2018-10-06T09:03:43.417Z,16.49
2018-10-06T09:04:42.866Z,16.57
2018-10-06T09:05:42.959Z,16.56
2018-10-06T09:06:42.846Z,16.56
2018-10-06T09:07:42.835Z,16.64
2018-10-06T09:08:43.084Z,16.75
2018-10-06T09:09:43.086Z,16.78
2018-10-06T09:10:42.997Z,16.76
2018-10-06T09:11:42.872Z,16.78
2018-10-06T09:12:42.778Z,16.96
2018-10-06T09:13:42.765Z,16.96
2018-10-06T09:14:43.030Z,16.99
2018-10-06T09:15:42.747Z,16.96
2018-10-06T09:16:42.810Z,17.11
2018-10-06T09:17:42.752Z,17.08
2018-10-06T09:18:42.715Z,17.09
2018-10-06T09:19:42.960Z,17.08
2018-10-06T09:20:42.978Z,17.19
2018-10-06T09:21:42.687Z,17.20
2018-10-06T09:22:43.198Z,17.23
2018-10-06T09:23:42.664Z,17.30
2018-10-06T09:24:42.651Z,17.39
2018-10-06T09:25:42.631Z,17.33
2018-10-06T09:26:42.620Z,17.41
2018-10-06T09:27:42.878Z,17.51
2018-10-06T09:28:42.869Z,17.64
2018-10-06T09:29:42.587Z,17.67
2018-10-06T09:30:42.663Z,17.65
2018-10-06T09:31:42.567Z,17.64
2018-10-06T09:32:42.820Z,17.80
2018-10-06T09:33:42.808Z,17.76
2018-10-06T09:34:42.550Z,17.87
2018-10-06T09:35:42.789Z,17.89
2018-10-06T09:36:42.515Z,17.86
2018-10-06T09:37:42.499Z,17.92
2018-10-06T09:38:42.759Z,17.98
2018-10-06T09:39:42.598Z,18.00
2018-10-06T09:40:42.486Z,18.07
2018-10-06T09:41:42.519Z,18.10
2018-10-06T09:42:42.841Z,18.20
2018-10-06T09:43:42.510Z,18.26
2018-10-06T09:44:42.421Z,18.29
2018-10-06T09:45:42.425Z,18.28
2018-10-06T09:46:42.934Z,18.40
2018-10-06T09:47:42.667Z,18.47
2018-10-06T09:48:42.660Z,18.49
2018-10-06T09:49:42.375Z,18.53
2018-10-06T09:50:42.358Z,18.55
2018-10-06T09:51:43.603Z,18.56
2018-10-06T09:52:42.443Z,18.63
2018-10-06T09:53:42.382Z,18.66
2018-10-06T09:54:42.464Z,18.73
2018-10-06T09:55:42.303Z,18.77
2018-10-06T09:56:42.909Z,18.80
2018-10-06T09:57:42.284Z,18.84
2018-10-06T09:58:42.279Z,18.84
2018-10-06T09:59:42.526Z,18.99
2018-10-06T10:00:42.248Z,19.02
2018-10-06T10:01:42.245Z,18.95
2018-10-06T10:02:42.236Z,19.04
2018-10-06T10:03:42.228Z,19.04
2018-10-06T10:04:42.207Z,19.16
2018-10-06T10:05:42.483Z,19.19
2018-10-06T10:06:42.248Z,19.18
2018-10-06T10:07:42.205Z,19.30
2018-10-06T10:08:42.162Z,19.15
2018-10-06T10:09:42.164Z,19.30
2018-10-06T10:10:42.156Z,19.37
2018-10-06T10:11:42.398Z,19.39
2018-10-06T10:12:42.193Z,19.47
2018-10-06T10:13:42.364Z,19.44
2018-10-06T10:14:42.106Z,19.51
2018-10-06T10:15:42.088Z,19.51
2018-10-06T10:16:42.078Z,19.62
2018-10-06T10:17:42.147Z,19.62
2018-10-06T10:18:42.336Z,19.66
2018-10-06T10:19:42.040Z,19.70
2018-10-06T10:20:42.083Z,19.70
2018-10-06T10:21:42.364Z,19.77
2018-10-06T10:22:42.189Z,19.82
2018-10-06T10:23:42.055Z,19.71
2018-10-06T10:24:41.985Z,19.77
2018-10-06T10:25:42.244Z,19.91
2018-10-06T10:26:41.967Z,19.91
2018-10-06T10:27:41.960Z,20.02
2018-10-06T10:28:42.257Z,20.03
2018-10-06T10:29:41.937Z,20.14
2018-10-06T10:30:42.446Z,20.21
2018-10-06T10:31:42.174Z,20.22
2018-10-06T10:32:41.916Z,20.24
2018-10-06T10:33:41.889Z,20.22
2018-10-06T10:34:41.890Z,20.25
2018-10-06T10:35:41.885Z,20.28
2018-10-06T10:36:41.958Z,20.39
2018-10-06T10:37:42.181Z,20.34
2018-10-06T10:38:41.832Z,20.37
2018-10-06T10:39:41.922Z,20.36
2018-10-06T10:40:41.817Z,20.50
2018-10-06T10:41:41.799Z,20.50
2018-10-06T10:42:41.911Z,20.50
2018-10-06T10:43:41.791Z,20.67
2018-10-06T10:44:42.033Z,20.67
2018-10-06T10:45:42.022Z,20.60
2018-10-06T10:46:41.745Z,20.74
2018-10-06T10:47:41.731Z,20.78
2018-10-06T10:48:41.988Z,20.82
2018-10-06T10:49:41.725Z,20.72
2018-10-06T10:50:41.761Z,20.78
2018-10-06T10:51:41.967Z,20.78
2018-10-06T10:52:41.683Z,20.77
2018-10-06T10:53:42.051Z,20.85
2018-10-06T10:54:41.745Z,20.92
2018-10-06T10:55:42.260Z,20.82
2018-10-06T10:56:41.897Z,20.85
2018-10-06T10:57:41.679Z,20.92
2018-10-06T10:58:41.619Z,20.88
2018-10-06T10:59:41.751Z,20.92
2018-10-06T11:00:41.595Z,20.96
2018-10-06T11:01:41.853Z,20.92
2018-10-06T11:02:41.833Z,21.02
2018-10-06T11:03:41.673Z,21.06
2018-10-06T11:04:41.605Z,21.00
2018-10-06T11:05:41.557Z,21.06
2018-10-06T11:06:41.549Z,21.05
2018-10-06T11:07:41.777Z,21.15
2018-10-06T11:08:43.082Z,21.12
2018-10-06T11:09:41.507Z,21.12
2018-10-06T11:10:41.497Z,21.17
2018-10-06T11:11:41.484Z,21.09
2018-10-06T11:12:41.744Z,21.25
2018-10-06T11:13:41.825Z,21.20
2018-10-06T11:14:41.449Z,21.24
2018-10-06T11:15:41.742Z,21.25
2018-10-06T11:16:41.424Z,21.29
2018-10-06T11:17:41.424Z,21.25
2018-10-06T11:18:41.668Z,21.30
2018-10-06T11:19:41.418Z,21.36
2018-10-06T11:20:41.653Z,21.30
2018-10-06T11:21:41.384Z,21.35
2018-10-06T11:22:41.378Z,21.39
2018-10-06T11:23:41.353Z,21.39
2018-10-06T11:24:41.628Z,21.36
2018-10-06T11:25:41.331Z,21.37
2018-10-06T11:26:41.316Z,21.39
2018-10-06T11:27:41.574Z,21.40
2018-10-06T11:28:41.301Z,21.36
2018-10-06T11:29:41.557Z,21.37
2018-10-06T11:30:41.542Z,21.45
2018-10-06T11:31:41.272Z,21.48
2018-10-06T11:32:41.279Z,21.48
2018-10-06T11:33:41.294Z,21.50
2018-10-06T11:34:41.255Z,21.51
2018-10-06T11:35:41.218Z,21.54
2018-10-06T11:36:41.473Z,21.58
2018-10-06T11:37:41.640Z,21.61
2018-10-06T11:38:41.458Z,21.60
2018-10-06T11:39:41.307Z,21.60
2018-10-06T11:40:41.194Z,21.60
2018-10-06T11:41:41.185Z,21.58
2018-10-06T11:42:41.157Z,21.61
2018-10-06T11:43:41.402Z,21.52
2018-10-06T11:44:41.128Z,21.55
2018-10-06T11:45:41.117Z,21.62
2018-10-06T11:46:41.371Z,21.61
2018-10-06T11:47:41.096Z,21.57
2018-10-06T11:48:41.095Z,21.62
2018-10-06T11:49:41.107Z,21.64
2018-10-06T11:50:41.065Z,21.61
2018-10-06T11:51:41.047Z,21.62
2018-10-06T11:52:41.040Z,21.62
2018-10-06T11:53:41.055Z,21.62
2018-10-06T11:54:41.023Z,21.66
2018-10-06T11:55:41.269Z,21.73
2018-10-06T11:56:41.259Z,21.66
2018-10-06T11:57:40.982Z,21.83
2018-10-06T11:58:40.968Z,21.79
2018-10-06T11:59:41.037Z,21.93
2018-10-06T12:00:40.979Z,21.95
2018-10-06T12:01:40.946Z,22.04
2018-10-06T12:02:40.940Z,22.00
2018-10-06T12:03:40.917Z,22.11
2018-10-06T12:04:40.908Z,22.20
2018-10-06T12:05:40.913Z,22.15
2018-10-06T12:06:40.904Z,22.22
2018-10-06T12:07:40.872Z,22.28
2018-10-06T12:08:40.859Z,22.38
2018-10-06T12:09:40.861Z,22.36
2018-10-06T12:10:40.839Z,22.43
2018-10-06T12:11:40.838Z,22.41
2018-10-06T12:12:40.824Z,22.39
2018-10-06T12:13:40.802Z,22.43
2018-10-06T12:14:41.322Z,22.54
2018-10-06T12:15:40.798Z,22.50
2018-10-06T12:16:40.771Z,22.59
2018-10-06T12:17:40.760Z,22.60
2018-10-06T12:18:40.751Z,22.57
2018-10-06T12:19:40.735Z,22.59
2018-10-06T12:20:41.109Z,22.66
2018-10-06T12:21:40.977Z,22.60
2018-10-06T12:22:40.825Z,22.68
2018-10-06T12:23:40.695Z,22.69
2018-10-06T12:24:40.973Z,22.90
2018-10-06T12:25:40.744Z,22.91
2018-10-06T12:26:40.678Z,22.94
2018-10-06T12:27:40.726Z,22.96
2018-10-06T12:28:40.638Z,22.99
2018-10-06T12:29:40.633Z,22.93
2018-10-06T12:30:41.141Z,22.94
2018-10-06T12:31:40.878Z,23.00
2018-10-06T12:32:41.008Z,23.06
2018-10-06T12:33:40.610Z,23.00
2018-10-06T12:34:40.669Z,23.08
2018-10-06T12:35:40.638Z,23.05
2018-10-06T12:36:40.807Z,23.13
2018-10-06T12:37:40.810Z,23.10
2018-10-06T12:38:40.803Z,23.13
2018-10-06T12:39:40.518Z,23.12
2018-10-06T12:40:40.517Z,23.21
2018-10-06T12:41:40.496Z,23.20
2018-10-06T12:42:40.490Z,23.20
2018-10-06T12:43:40.748Z,23.25
2018-10-06T12:44:40.517Z,23.20
2018-10-06T12:45:40.473Z,23.37
2018-10-06T12:46:40.516Z,23.31
2018-10-06T12:47:40.428Z,23.28
2018-10-06T12:48:40.421Z,23.28
2018-10-06T12:49:40.406Z,23.40
2018-10-06T12:50:40.406Z,23.31
2018-10-06T12:51:40.663Z,23.32
2018-10-06T12:52:40.847Z,23.39
2018-10-06T12:53:40.369Z,23.28
2018-10-06T12:54:40.617Z,23.25
2018-10-06T12:55:40.346Z,23.25